Time;durP1;ratioP1;P1;durP2;ratioP2;P2;SDS_P1;SDS_P2;PMS_P1;PMS_P2;Temp;Humidity;BMP_temperature;BMP_pressure;BME280_temperature;BME280_humidity;BME280_pressure;Samples;Min_cycle;Max_cycle;Signal;HPM_P1;HPM_P2
2021/08/24 00:00:21;;;;;;;6.45;3.42;;;;;;;15.07;100.00;102596.03;5172831;28;20057;-67
2021/08/24 00:02:54;;;;;;;5.05;3.38;;;;;;;15.02;100.00;102592.94;5173319;28;20023;-67
2021/08/24 00:05:29;;;;;;;6.68;3.67;;;;;;;14.97;100.00;102597.72;5172218;28;20023;-66
2021/08/24 00:08:01;;;;;;;5.22;3.38;;;;;;;14.97;100.00;102596.88;5172625;28;20117;-66
2021/08/24 00:10:38;;;;;;;5.95;3.60;;;;;;;14.90;100.00;102587.75;5170947;28;20465;-68
2021/08/24 00:13:10;;;;;;;5.65;3.40;;;;;;;14.92;100.00;102594.56;5173163;28;20535;-67
2021/08/24 00:15:42;;;;;;;6.60;3.67;;;;;;;14.91;100.00;102597.34;5172162;28;20030;-67
2021/08/24 00:18:14;;;;;;;5.85;3.47;;;;;;;14.88;100.00;102597.56;5171583;28;20042;-66
2021/08/24 00:20:47;;;;;;;5.57;3.83;;;;;;;14.83;100.00;102596.13;5171683;28;20023;-66
2021/08/24 00:23:23;;;;;;;7.40;3.80;;;;;;;14.83;100.00;102592.63;5173015;28;20117;-67
2021/08/24 00:25:56;;;;;;;5.85;3.80;;;;;;;14.70;100.00;102590.09;5172682;28;20019;-67
2021/08/24 00:28:28;;;;;;;6.15;3.78;;;;;;;14.77;100.00;102595.72;5170935;28;20035;-65
2021/08/24 00:31:00;;;;;;;5.43;3.38;;;;;;;14.76;100.00;102601.97;5170397;28;20041;-66
2021/08/24 00:33:31;;;;;;;4.72;3.50;;;;;;;14.71;100.00;102601.47;5172042;28;20484;-67
2021/08/24 00:36:03;;;;;;;6.07;3.90;;;;;;;14.67;100.00;102600.84;5171039;28;20041;-67
2021/08/24 00:38:34;;;;;;;6.00;3.88;;;;;;;14.63;100.00;102601.22;5171788;28;20031;-66
2021/08/24 00:41:06;;;;;;;5.95;3.80;;;;;;;14.60;100.00;102597.00;5170288;28;20066;-67
2021/08/24 00:43:40;;;;;;;6.28;3.50;;;;;;;14.60;100.00;102600.47;5172119;28;20019;-66
2021/08/24 00:46:26;;;;;;;4.95;3.40;;;;;;;14.60;100.00;102599.63;5171868;28;20546;-67
2021/08/24 00:49:01;;;;;;;6.22;3.90;;;;;;;14.55;100.00;102604.41;5170772;28;20026;-67
2021/08/24 00:51:35;;;;;;;6.03;3.55;;;;;;;14.57;100.00;102599.84;5172203;28;20081;-67
2021/08/24 00:54:12;;;;;;;4.75;3.42;;;;;;;14.61;100.00;102603.94;5172050;28;20018;-66
2021/08/24 00:56:49;;;;;;;5.30;3.70;;;;;;;14.49;100.00;102604.81;5171361;28;20537;-67
2021/08/24 00:59:21;;;;;;;4.88;3.67;;;;;;;14.43;100.00;102603.44;5171793;28;20019;-65
2021/08/24 01:01:52;;;;;;;5.53;3.35;;;;;;;14.38;100.00;102610.88;5171454;28;20093;-67
2021/08/24 01:04:25;;;;;;;3.92;3.30;;;;;;;14.39;100.00;102607.28;5171565;28;20073;-67
2021/08/24 01:07:04;;;;;;;5.25;3.67;;;;;;;14.41;100.00;102596.63;5170126;28;20035;-67
2021/08/24 01:09:54;;;;;;;8.23;4.40;;;;;;;14.41;100.00;102605.38;5171634;28;20034;-66
2021/08/24 01:13:03;;;;;;;4.75;3.47;;;;;;;14.47;100.00;102596.16;5171600;28;20034;-66
2021/08/24 01:15:55;;;;;;;5.63;3.85;;;;;;;14.43;100.00;102600.81;5167427;28;20497;-68
2021/08/24 01:18:42;;;;;;;6.10;3.45;;;;;;;14.39;100.00;102601.16;5171744;28;20027;-66
2021/08/24 01:21:26;;;;;;;6.45;3.80;;;;;;;14.30;100.00;102603.50;5170652;28;20118;-67
2021/08/24 01:24:20;;;;;;;4.97;3.90;;;;;;;14.36;100.00;102610.16;5171873;28;20033;-67
2021/08/24 01:27:22;;;;;;;5.43;3.78;;;;;;;14.33;100.00;102602.47;5170430;28;20126;-66
2021/08/24 01:30:08;;;;;;;5.68;4.10;;;;;;;14.30;100.00;102606.16;5169747;28;20502;-66
2021/08/24 01:32:59;;;;;;;6.78;4.15;;;;;;;14.24;100.00;102606.59;5171797;28;20041;-67
2021/08/24 01:36:08;;;;;;;14.73;4.80;;;;;;;14.24;100.00;102609.22;5171484;28;20038;-66
2021/08/24 01:38:54;;;;;;;5.45;3.50;;;;;;;14.15;100.00;102602.00;5170875;28;20222;-67
2021/08/24 01:41:33;;;;;;;7.35;3.97;;;;;;;14.10;100.00;102604.13;5170301;28;20027;-67
2021/08/24 01:44:11;;;;;;;7.85;4.13;;;;;;;14.14;100.00;102604.75;5172315;28;20027;-67
2021/08/24 01:47:02;;;;;;;6.63;3.88;;;;;;;14.11;100.00;102601.38;5171125;28;20077;-66
2021/08/24 01:49:37;;;;;;;6.38;4.68;;;;;;;14.02;100.00;102603.84;5170849;28;20030;-67
2021/08/24 01:52:13;;;;;;;6.25;4.60;;;;;;;13.99;100.00;102601.41;5171699;28;20385;-67
2021/08/24 01:54:51;;;;;;;5.38;4.40;;;;;;;13.98;100.00;102610.25;5171013;28;20034;-67
2021/08/24 01:58:01;;;;;;;7.00;4.07;;;;;;;14.06;100.00;102610.56;5171094;28;20038;-67
2021/08/24 02:00:35;;;;;;;7.68;4.35;;;;;;;13.96;100.00;102612.16;5184015;28;20547;-67
2021/08/24 02:03:11;;;;;;;6.57;3.92;;;;;;;13.85;100.00;102594.47;5169164;28;20022;-66
2021/08/24 02:05:50;;;;;;;6.43;4.40;;;;;;;13.94;100.00;102601.75;5168447;28;20394;-66
2021/08/24 02:08:24;;;;;;;5.95;3.90;;;;;;;13.91;100.00;102606.41;5172043;28;20030;-67
2021/08/24 02:10:59;;;;;;;4.88;4.05;;;;;;;13.90;100.00;102609.97;5173159;28;20023;-67
2021/08/24 02:13:41;;;;;;;6.70;4.15;;;;;;;13.88;100.00;102610.91;5173685;28;20031;-66
2021/08/24 02:16:18;;;;;;;6.07;4.25;;;;;;;13.82;100.00;102618.41;5173082;28;20023;-67
2021/08/24 02:18:58;;;;;;;5.25;4.10;;;;;;;13.80;100.00;102617.69;5172978;28;20023;-65
2021/08/24 02:21:43;;;;;;;8.65;4.65;;;;;;;13.74;100.00;102615.47;5174363;28;20045;-67
2021/08/24 02:24:19;;;;;;;5.90;4.15;;;;;;;13.73;100.00;102621.69;5174032;28;20389;-66
2021/08/24 02:26:52;;;;;;;5.97;3.97;;;;;;;13.67;100.00;102617.69;5173952;28;20077;-66
2021/08/24 02:29:24;;;;;;;6.97;4.35;;;;;;;13.66;100.00;102618.63;5173542;28;20023;-66
2021/08/24 02:32:04;;;;;;;7.82;4.43;;;;;;;13.73;100.00;102624.31;5175015;28;20030;-67
2021/08/24 02:35:07;;;;;;;6.25;4.43;;;;;;;13.78;100.00;102628.31;5172916;28;20043;-67
2021/08/24 02:37:48;;;;;;;8.52;4.38;;;;;;;13.69;100.00;102631.59;5172589;28;20140;-67
2021/08/24 02:40:26;;;;;;;7.70;4.35;;;;;;;13.63;100.00;102637.28;5171342;28;20047;-67
2021/08/24 02:43:10;;;;;;;9.90;4.72;;;;;;;13.61;100.00;102637.41;5173494;28;20378;-65
2021/08/24 02:45:52;;;;;;;6.20;4.32;;;;;;;13.62;100.00;102636.44;5172580;28;20051;-66
2021/08/24 02:48:25;;;;;;;7.50;4.63;;;;;;;13.55;100.00;102636.97;5174703;28;20674;-66
2021/08/24 02:50:57;;;;;;;7.60;4.30;;;;;;;13.49;100.00;102637.41;5174332;28;20034;-65
2021/08/24 02:53:31;;;;;;;5.90;4.10;;;;;;;13.53;100.00;102636.25;5173810;28;20033;-65
2021/08/24 02:56:02;;;;;;;6.15;3.83;;;;;;;13.50;100.00;102644.34;5174639;28;20034;-67
2021/08/24 02:58:33;;;;;;;7.40;4.10;;;;;;;13.48;100.00;102635.69;5172715;28;20050;-67
2021/08/24 03:01:05;;;;;;;6.40;3.97;;;;;;;13.47;100.00;102639.28;5174369;28;20614;-67
2021/08/24 03:03:36;;;;;;;9.40;3.95;;;;;;;13.44;100.00;102632.44;5174548;28;20019;-66
2021/08/24 03:06:08;;;;;;;6.03;4.22;;;;;;;13.41;100.00;102635.31;5172734;28;20033;-67
2021/08/24 03:08:40;;;;;;;8.07;4.22;;;;;;;13.41;100.00;102637.94;5173947;28;20406;-66
2021/08/24 03:11:16;;;;;;;7.45;4.18;;;;;;;13.44;100.00;102636.88;5174562;28;20026;-66
2021/08/24 03:14:00;;;;;;;6.35;4.00;;;;;;;13.42;100.00;102636.16;5172253;28;20082;-67
2021/08/24 03:16:42;;;;;;;;;;;;;;;13.69;100.00;102633.41;5174800;28;20041;-66
2021/08/24 03:19:18;;;;;;;5.45;3.47;;;;;;;13.39;100.00;102635.38;5173396;28;19962;-65
2021/08/24 03:21:50;;;;;;;6.28;4.25;;;;;;;13.30;100.00;102636.03;5172566;28;20085;-67
2021/08/24 03:24:23;;;;;;;6.97;4.10;;;;;;;13.25;100.00;102635.47;5173736;28;20023;-69
2021/08/24 03:26:54;;;;;;;5.23;4.03;;;;;;;13.22;100.00;102638.31;5171420;28;20531;-66
2021/08/24 03:29:26;;;;;;;7.57;4.35;;;;;;;13.23;100.00;102634.75;5173784;28;20031;-66
2021/08/24 03:31:57;;;;;;;7.32;3.85;;;;;;;13.23;100.00;102632.13;5172549;28;20515;-67
2021/08/24 03:34:28;;;;;;;8.45;3.92;;;;;;;13.17;100.00;102631.66;5172821;28;20776;-66
2021/08/24 03:37:00;;;;;;;9.15;4.57;;;;;;;13.20;100.00;102637.56;5172836;28;20027;-65
2021/08/24 03:39:31;;;;;;;8.57;4.28;;;;;;;13.10;100.00;102647.84;5171362;28;20101;-67
2021/08/24 03:42:02;;;;;;;5.82;3.80;;;;;;;13.13;100.00;102646.81;5171244;28;20026;-66
2021/08/24 03:44:33;;;;;;;5.75;4.15;;;;;;;13.13;100.00;102639.75;5170896;28;20089;-66
2021/08/24 03:47:05;;;;;;;6.25;4.20;;;;;;;13.17;100.00;102642.19;5173178;28;20460;-67
2021/08/24 03:49:37;;;;;;;6.20;4.28;;;;;;;13.07;100.00;102657.75;5173362;28;20033;-65
2021/08/24 03:52:09;;;;;;;9.80;4.22;;;;;;;13.03;100.00;102646.59;5171049;28;20029;-67
2021/08/24 03:54:40;;;;;;;6.50;4.28;;;;;;;12.98;100.00;102651.28;5172776;28;20031;-67
2021/08/24 03:57:12;;;;;;;6.93;3.85;;;;;;;12.94;100.00;102654.25;5173956;28;20042;-67
2021/08/24 03:59:43;;;;;;;7.53;4.18;;;;;;;12.99;100.00;102658.22;5170273;28;20401;-66
2021/08/24 04:02:15;;;;;;;6.68;3.85;;;;;;;13.01;100.00;102658.16;5171700;28;20031;-66
2021/08/24 04:04:46;;;;;;;6.65;4.40;;;;;;;12.97;100.00;102661.94;5171456;28;20046;-67
2021/08/24 04:07:18;;;;;;;7.22;4.15;;;;;;;12.88;100.00;102666.84;5172369;28;20030;-66
2021/08/24 04:09:51;;;;;;;5.50;4.13;;;;;;;12.80;100.00;102663.03;5172227;28;20080;-66
2021/08/24 04:12:23;;;;;;;6.20;4.35;;;;;;;12.78;100.00;102668.41;5172282;28;20030;-66
2021/08/24 04:14:55;;;;;;;5.95;3.97;;;;;;;12.74;100.00;102668.69;5172663;28;20027;-66
2021/08/24 04:17:26;;;;;;;6.78;4.82;;;;;;;12.67;100.00;102668.25;5171367;28;20480;-66
2021/08/24 04:19:57;;;;;;;5.75;4.28;;;;;;;12.74;100.00;102669.53;5172244;28;20030;-66
2021/08/24 04:22:29;;;;;;;5.95;4.85;;;;;;;12.61;100.00;102676.50;5172568;28;20388;-67
2021/08/24 04:25:00;;;;;;;7.47;4.82;;;;;;;12.59;100.00;102670.53;5172213;28;20464;-67
2021/08/24 04:27:31;;;;;;;10.30;4.50;;;;;;;12.73;100.00;102672.25;5168882;28;20011;-66
2021/08/24 04:30:04;;;;;;;5.40;4.20;;;;;;;12.58;100.00;102679.38;5172635;28;20397;-67
2021/08/24 04:32:40;;;;;;;8.40;5.07;;;;;;;12.63;100.00;102679.91;5172396;28;20033;-67
2021/08/24 04:35:14;;;;;;;6.20;4.03;;;;;;;12.61;100.00;102684.41;5169986;28;20126;-67
2021/08/24 04:37:46;;;;;;;6.82;4.47;;;;;;;12.53;100.00;102678.78;5171242;28;20090;-67
2021/08/24 04:40:17;;;;;;;7.38;4.60;;;;;;;12.59;100.00;102687.16;5170900;28;20054;-67
2021/08/24 04:42:48;;;;;;;5.50;4.30;;;;;;;12.54;100.00;102688.38;5173052;28;20061;-66
2021/08/24 04:45:20;;;;;;;7.78;5.15;;;;;;;12.51;100.00;102680.69;5170675;28;20026;-67
2021/08/24 04:47:51;;;;;;;6.18;4.22;;;;;;;12.48;100.00;102686.97;5171722;28;20057;-67
2021/08/24 04:50:22;;;;;;;8.15;5.18;;;;;;;12.44;100.00;102687.28;5170544;28;20019;-67
2021/08/24 04:52:54;;;;;;;5.60;3.92;;;;;;;12.46;100.00;102685.38;5172060;28;20027;-67
2021/08/24 04:55:25;;;;;;;8.52;5.05;;;;;;;12.48;100.00;102686.97;5170982;28;20119;-66
2021/08/24 04:57:56;;;;;;;10.25;4.50;;;;;;;12.49;100.00;102690.44;5170765;28;20031;-65
2021/08/24 05:00:29;;;;;;;8.88;4.40;;;;;;;12.45;100.00;102681.91;5169979;28;20709;-67
2021/08/24 05:03:01;;;;;;;8.40;4.70;;;;;;;12.43;100.00;102685.59;5168468;28;20307;-66
2021/08/24 05:05:32;;;;;;;6.57;4.28;;;;;;;12.50;100.00;102689.50;5169137;28;20122;-67
2021/08/24 05:08:04;;;;;;;6.80;4.65;;;;;;;12.48;100.00;102688.78;5170862;28;20027;-66
2021/08/24 05:10:36;;;;;;;9.93;5.03;;;;;;;12.46;100.00;102693.28;5168930;28;20058;-66
2021/08/24 05:13:07;;;;;;;8.38;5.00;;;;;;;12.44;100.00;102687.28;5168734;28;20118;-66
2021/08/24 05:15:39;;;;;;;6.40;4.85;;;;;;;12.48;100.00;102696.66;5167343;28;20049;-66
2021/08/24 05:18:10;;;;;;;7.70;4.85;;;;;;;12.51;100.00;102709.63;5169537;28;20083;-66
2021/08/24 05:20:45;;;;;;;8.23;4.95;;;;;;;12.50;100.00;102706.16;5170763;28;20113;-66
2021/08/24 05:23:17;;;;;;;7.43;5.35;;;;;;;12.54;100.00;102699.75;5167487;28;20150;-66
2021/08/24 05:25:48;;;;;;;9.20;5.60;;;;;;;12.56;100.00;102708.38;5169401;28;20492;-66
2021/08/24 05:28:19;;;;;;;8.07;5.95;;;;;;;12.57;100.00;102710.06;5170752;28;20050;-67
2021/08/24 05:30:51;;;;;;;8.70;5.43;;;;;;;12.58;100.00;102706.50;5169428;28;20031;-67
2021/08/24 05:33:22;;;;;;;6.45;5.10;;;;;;;12.63;100.00;102712.28;5165727;28;20026;-66
2021/08/24 05:36:02;;;;;;;7.38;5.13;;;;;;;12.75;100.00;102715.09;5170857;28;20496;-67
2021/08/24 05:38:34;;;;;;;8.75;5.25;;;;;;;12.76;100.00;102722.03;5170273;28;20170;-67
2021/08/24 05:41:07;;;;;;;8.75;5.95;;;;;;;12.78;100.00;102722.78;5172709;28;20154;-66
2021/08/24 05:43:42;;;;;;;8.63;6.32;;;;;;;12.87;100.00;102720.38;5175003;28;20044;-67
2021/08/24 05:46:14;;;;;;;11.20;6.30;;;;;;;12.85;100.00;102718.81;5174603;28;20487;-67
2021/08/24 05:48:45;;;;;;;12.70;6.07;;;;;;;12.95;100.00;102719.06;5175112;28;20077;-68
2021/08/24 05:51:21;;;;;;;10.35;6.63;;;;;;;12.99;100.00;102717.91;5174774;28;20027;-67
2021/08/24 05:53:52;;;;;;;9.65;6.88;;;;;;;12.99;100.00;102723.16;5173361;28;20444;-67
2021/08/24 05:56:25;;;;;;;8.95;6.57;;;;;;;13.04;100.00;102726.38;5172817;28;20106;-67
2021/08/24 05:58:56;;;;;;;10.23;6.53;;;;;;;13.11;100.00;102725.03;5172234;28;20032;-67
2021/08/24 06:01:30;;;;;;;9.20;6.93;;;;;;;13.13;100.00;102725.75;5172514;28;20066;-65
2021/08/24 06:04:03;;;;;;;10.35;7.13;;;;;;;13.14;100.00;102727.44;5172753;28;20066;-67
2021/08/24 06:06:37;;;;;;;10.52;7.35;;;;;;;13.22;100.00;102721.66;5173673;28;20106;-67
2021/08/24 06:09:11;;;;;;;12.05;7.40;;;;;;;13.28;100.00;102724.78;5186722;28;20077;-69
2021/08/24 06:11:47;;;;;;;11.82;7.35;;;;;;;13.31;100.00;102721.94;5170021;28;20420;-70
2021/08/24 06:14:21;;;;;;;11.10;7.45;;;;;;;13.36;100.00;102719.84;5172022;28;20026;-66
2021/08/24 06:16:57;;;;;;;11.02;7.20;;;;;;;13.43;100.00;102719.44;5173117;28;20046;-68
2021/08/24 06:19:29;;;;;;;12.50;7.80;;;;;;;13.50;100.00;102728.63;5175275;28;20038;-67
2021/08/24 06:22:01;;;;;;;13.60;8.10;;;;;;;13.53;100.00;102724.00;5171968;28;20496;-66
2021/08/24 06:24:34;;;;;;;12.35;7.35;;;;;;;13.58;100.00;102724.50;5161286;28;20158;-67
2021/08/24 06:27:06;;;;;;;12.13;7.88;;;;;;;13.65;100.00;102722.31;5170047;28;20503;-67
2021/08/24 06:29:38;;;;;;;13.85;8.23;;;;;;;13.73;100.00;102722.63;5164882;28;20030;-67
2021/08/24 06:32:31;;;;;;;12.50;8.80;;;;;;;13.84;100.00;102724.53;5172761;28;20108;-67
2021/08/24 06:35:03;;;;;;;10.48;9.38;;;;;;;13.84;100.00;102725.38;5171569;28;20033;-67
2021/08/24 06:37:34;;;;;;;13.27;8.02;;;;;;;13.93;100.00;102726.53;5173185;28;20381;-67
2021/08/24 06:40:08;;;;;;;13.75;9.32;;;;;;;13.99;100.00;102727.91;5173465;28;20049;-67
2021/08/24 06:42:42;;;;;;;14.05;9.40;;;;;;;14.07;100.00;102733.47;5168253;28;20054;-68
2021/08/24 06:45:22;;;;;;;15.38;9.60;;;;;;;14.15;100.00;102733.78;5167190;28;20037;-67
2021/08/24 06:47:54;;;;;;;13.23;9.98;;;;;;;14.19;100.00;102742.31;5172432;28;20023;-67
2021/08/24 06:50:27;;;;;;;13.70;10.25;;;;;;;14.25;100.00;102742.75;5174429;28;20037;-67
2021/08/24 06:52:58;;;;;;;13.85;9.05;;;;;;;14.28;100.00;102726.72;5170459;28;20027;-67
2021/08/24 06:55:32;;;;;;;11.25;9.57;;;;;;;14.41;100.00;102731.97;5173930;28;20484;-67
2021/08/24 06:58:07;;;;;;;12.18;9.20;;;;;;;14.49;100.00;102732.28;5172953;28;20043;-67
2021/08/24 07:00:40;;;;;;;14.15;10.60;;;;;;;14.55;100.00;102731.00;5170650;28;20100;-67
2021/08/24 07:03:12;;;;;;;15.68;10.13;;;;;;;14.60;100.00;102737.63;5170286;28;20031;-67
2021/08/24 07:05:46;;;;;;;12.48;9.77;;;;;;;14.68;100.00;102733.59;5174126;28;20488;-67
2021/08/24 07:08:18;;;;;;;13.90;9.90;;;;;;;14.74;100.00;102738.44;5172032;28;20026;-67
2021/08/24 07:10:50;;;;;;;12.85;10.20;;;;;;;14.81;100.00;102734.38;5171029;28;20530;-67
2021/08/24 07:13:21;;;;;;;13.32;10.68;;;;;;;14.90;100.00;102746.94;5174324;28;20449;-67
2021/08/24 07:15:52;;;;;;;15.55;9.65;;;;;;;14.98;100.00;102739.28;5171882;28;20511;-67
2021/08/24 07:18:24;;;;;;;12.00;9.30;;;;;;;15.01;100.00;102736.44;5171100;28;20063;-68
2021/08/24 07:20:55;;;;;;;12.20;9.73;;;;;;;15.14;100.00;102740.78;5166589;28;20022;-68
2021/08/24 07:23:26;;;;;;;14.45;10.30;;;;;;;15.17;100.00;102741.41;5165171;28;20039;-68
2021/08/24 07:25:58;;;;;;;15.65;9.82;;;;;;;15.29;100.00;102742.28;5170501;28;20548;-67
2021/08/24 07:28:29;;;;;;;13.70;9.85;;;;;;;15.31;100.00;102740.41;5172574;28;20050;-67
2021/08/24 07:31:00;;;;;;;13.85;9.93;;;;;;;15.38;100.00;102746.03;5172585;28;20022;-68
2021/08/24 07:33:32;;;;;;;12.25;9.20;;;;;;;15.47;100.00;102748.00;5172232;28;20042;-68
2021/08/24 07:36:03;;;;;;;13.15;9.07;;;;;;;15.53;100.00;102747.53;5169236;28;20511;-68
2021/08/24 07:38:35;;;;;;;18.98;10.27;;;;;;;15.60;100.00;102754.03;5172708;28;20555;-67
2021/08/24 07:41:07;;;;;;;10.43;9.38;;;;;;;15.64;100.00;102754.63;5172701;28;20038;-68
2021/08/24 07:43:38;;;;;;;12.07;8.90;;;;;;;15.70;100.00;102751.56;5171907;28;20026;-68
2021/08/24 07:46:09;;;;;;;16.95;9.45;;;;;;;15.87;100.00;102748.47;5166329;28;20030;-67
2021/08/24 07:48:41;;;;;;;18.10;9.82;;;;;;;15.97;100.00;102748.59;5165247;28;20026;-68
2021/08/24 07:51:12;;;;;;;9.95;8.95;;;;;;;16.03;100.00;102748.13;5173156;28;20038;-67
2021/08/24 07:53:43;;;;;;;12.98;9.30;;;;;;;16.13;100.00;102751.72;5172367;28;20035;-68
2021/08/24 07:56:15;;;;;;;12.25;9.68;;;;;;;16.28;100.00;102744.41;5172926;28;20027;-68
2021/08/24 07:58:46;;;;;;;13.00;8.70;;;;;;;16.40;100.00;102750.53;5172057;28;20030;-67
2021/08/24 08:01:18;;;;;;;12.75;9.80;;;;;;;16.45;100.00;102745.72;5172050;28;20114;-68
2021/08/24 08:03:50;;;;;;;14.13;9.27;;;;;;;16.51;100.00;102756.63;5171998;28;20515;-68
2021/08/24 08:06:21;;;;;;;13.82;9.43;;;;;;;16.68;100.00;102757.13;5172179;28;20027;-68
2021/08/24 08:08:52;;;;;;;13.75;9.50;;;;;;;16.75;100.00;102758.34;5172327;28;20081;-67
2021/08/24 08:11:25;;;;;;;10.25;8.93;;;;;;;16.82;100.00;102758.66;5172470;28;20023;-67
2021/08/24 08:13:56;;;;;;;13.17;9.57;;;;;;;16.95;100.00;102756.72;5172815;28;20551;-68
2021/08/24 08:16:27;;;;;;;11.93;8.95;;;;;;;16.95;100.00;102754.06;5169095;28;20026;-68
2021/08/24 08:18:58;;;;;;;12.48;9.25;;;;;;;17.06;100.00;102756.69;5168837;28;20042;-68
2021/08/24 08:21:33;;;;;;;10.77;8.05;;;;;;;17.21;100.00;102750.13;5170493;28;20042;-67
2021/08/24 08:24:04;;;;;;;13.65;8.77;;;;;;;17.26;100.00;102752.38;5171651;28;21190;-67
2021/08/24 08:26:38;;;;;;;12.30;8.80;;;;;;;17.35;100.00;102759.56;5172777;28;20333;-68
2021/08/24 08:29:11;;;;;;;12.93;8.27;;;;;;;17.51;100.00;102752.00;5171890;28;20031;-67
2021/08/24 08:31:46;;;;;;;14.43;8.35;;;;;;;17.56;100.00;102756.91;5169922;28;20125;-67
2021/08/24 08:34:18;;;;;;;9.40;7.97;;;;;;;17.69;100.00;102746.97;5171520;28;20038;-68
2021/08/24 08:36:51;;;;;;;12.98;7.95;;;;;;;17.86;100.00;102750.84;5172369;28;20061;-68
2021/08/24 08:39:22;;;;;;;10.15;8.52;;;;;;;17.90;100.00;102746.13;5170216;28;20047;-68
2021/08/24 08:41:59;;;;;;;9.73;8.00;;;;;;;18.08;100.00;102743.72;5168236;28;20026;-68
2021/08/24 08:44:42;;;;;;;10.38;7.85;;;;;;;18.15;100.00;102748.34;5170806;28;20113;-68
2021/08/24 08:47:47;;;;;;;11.98;7.53;;;;;;;18.32;100.00;102743.38;5170545;28;20042;-68
2021/08/24 08:50:35;;;;;;;10.68;7.93;;;;;;;18.55;100.00;102738.69;5172013;28;20417;-68
2021/08/24 08:53:31;;;;;;;10.18;7.72;;;;;;;18.63;100.00;102734.38;5168803;28;20034;-68
2021/08/24 08:56:36;;;;;;;9.68;7.03;;;;;;;18.75;100.00;102737.78;5171348;28;20026;-68
2021/08/24 08:59:17;;;;;;;9.98;7.47;;;;;;;18.80;100.00;102740.03;5170079;28;20041;-68
2021/08/24 09:01:58;;;;;;;12.38;7.07;;;;;;;18.91;100.00;102745.22;5169892;28;20042;-67
2021/08/24 09:04:34;;;;;;;10.45;7.40;;;;;;;19.01;100.00;102742.56;5171073;28;20365;-68
2021/08/24 09:07:13;;;;;;;9.05;6.63;;;;;;;19.14;100.00;102743.97;5171317;28;20026;-68
2021/08/24 09:09:45;;;;;;;11.38;7.78;;;;;;;19.21;100.00;102746.91;5167654;28;20058;-68
2021/08/24 09:12:18;;;;;;;12.73;7.07;;;;;;;19.30;100.00;102748.72;5168964;28;20481;-69
2021/08/24 09:14:56;;;;;;;10.27;7.15;;;;;;;19.48;100.00;102738.22;5168496;28;20404;-67
2021/08/24 09:17:40;;;;;;;7.95;6.15;;;;;;;19.65;100.00;102742.81;5167186;28;20125;-67
2021/08/24 09:20:31;;;;;;;11.10;5.88;;;;;;;19.70;100.00;102739.75;5170066;28;20038;-68
2021/08/24 09:23:03;;;;;;;7.72;5.25;;;;;;;19.80;100.00;102739.69;5168868;28;20436;-67
2021/08/24 09:26:02;;;;;;;8.07;5.05;;;;;;;20.08;100.00;102744.09;5170126;28;20038;-67
2021/08/24 09:28:34;;;;;;;8.63;5.10;;;;;;;20.06;100.00;102732.75;5167134;28;20031;-67
2021/08/24 09:31:14;;;;;;;5.57;3.93;;;;;;;20.17;100.00;102734.38;5169299;28;20030;-68
2021/08/24 09:33:45;;;;;;;7.50;4.32;;;;;;;20.31;100.00;102733.91;5169152;28;20113;-68
2021/08/24 09:36:19;;;;;;;6.33;4.17;;;;;;;20.42;100.00;102732.88;5170783;28;20032;-68
2021/08/24 09:38:54;;;;;;;7.05;4.38;;;;;;;20.58;100.00;102726.91;5170454;28;20081;-68
2021/08/24 09:41:28;;;;;;;7.45;4.70;;;;;;;20.63;100.00;102724.63;5170234;28;20396;-67
2021/08/24 09:44:24;;;;;;;8.30;3.63;;;;;;;20.84;100.00;102727.84;5166630;28;21114;-68
2021/08/24 09:47:06;;;;;;;9.35;4.93;;;;;;;20.89;100.00;102727.38;5170006;28;20030;-67
2021/08/24 09:49:41;;;;;;;6.45;4.10;;;;;;;20.90;100.00;102731.72;5168779;28;20683;-67
2021/08/24 09:52:23;;;;;;;5.82;4.38;;;;;;;21.02;100.00;102732.31;5169335;28;20050;-68
2021/08/24 09:55:04;;;;;;;9.23;3.20;;;;;;;20.97;100.00;102730.13;5169237;28;20061;-67
2021/08/24 09:57:51;;;;;;;5.43;3.33;;;;;;;21.04;100.00;102719.69;5170309;28;20568;-67
2021/08/24 10:00:57;;;;;;;5.82;3.67;;;;;;;21.18;100.00;102731.63;5169681;28;20039;-68
2021/08/24 10:03:31;;;;;;;6.57;3.50;;;;;;;21.01;98.99;102728.81;5165788;28;20042;-67
2021/08/24 10:06:07;;;;;;;6.18;3.90;;;;;;;21.10;98.78;102733.25;5168971;28;20030;-67
2021/08/24 10:08:44;;;;;;;4.70;3.20;;;;;;;21.16;97.66;102723.78;5169552;28;20428;-68
2021/08/24 10:11:32;;;;;;;5.32;2.80;;;;;;;21.36;97.17;102727.13;5171009;28;20030;-67
2021/08/24 10:14:11;;;;;;;5.95;3.38;;;;;;;21.40;99.26;102719.66;5170660;28;20073;-67
2021/08/24 10:16:45;;;;;;;4.97;3.10;;;;;;;21.43;94.89;102722.84;5170543;28;20381;-68
2021/08/24 10:19:27;;;;;;;7.13;3.20;;;;;;;21.53;95.77;102723.59;5169515;28;20106;-67
2021/08/24 10:22:08;;;;;;;6.35;3.40;;;;;;;21.61;94.36;102718.31;5171214;28;20023;-67
2021/08/24 10:24:52;;;;;;;4.88;3.00;;;;;;;21.66;95.28;102719.66;5169987;28;20023;-68
2021/08/24 10:27:33;;;;;;;6.43;3.00;;;;;;;21.88;95.67;102713.78;5170730;28;20402;-68
2021/08/24 10:30:32;;;;;;;5.38;2.90;;;;;;;22.01;96.80;102711.53;5174338;28;20458;-68
2021/08/24 10:33:04;;;;;;;5.90;3.08;;;;;;;21.79;91.87;102704.91;5171845;28;20452;-68
2021/08/24 10:35:39;;;;;;;5.60;2.77;;;;;;;21.97;92.75;102712.84;5171642;28;20058;-68
2021/08/24 10:38:17;;;;;;;6.07;2.95;;;;;;;21.94;90.71;102715.00;5174200;28;20078;-69
2021/08/24 10:40:48;;;;;;;7.22;2.97;;;;;;;22.03;89.59;102712.19;5172251;28;20655;-69
2021/08/24 10:43:23;;;;;;;8.00;2.93;;;;;;;22.00;90.88;102703.66;5172871;28;20488;-67
2021/08/24 10:46:11;;;;;;;5.82;3.10;;;;;;;21.89;91.93;102706.59;5167644;28;20054;-68
2021/08/24 10:48:43;;;;;;;7.05;3.45;;;;;;;21.84;92.94;102707.09;5163985;28;20078;-67
2021/08/24 10:51:40;;;;;;;5.63;3.05;;;;;;;22.06;92.73;102701.19;5173136;28;20514;-68
2021/08/24 10:54:19;;;;;;;5.75;3.22;;;;;;;21.96;91.61;102697.81;5161876;28;20468;-67
2021/08/24 10:57:13;;;;;;;4.60;2.85;;;;;;;21.79;94.19;102712.09;5171183;28;20507;-69
2021/08/24 10:59:47;;;;;;;6.53;3.03;;;;;;;21.71;92.63;102702.19;5169890;28;20441;-67
2021/08/24 11:02:48;;;;;;;5.28;3.00;;;;;;;21.83;92.91;102702.75;5170744;28;20031;-67
2021/08/24 11:05:48;;;;;;;5.13;3.25;;;;;;;21.76;93.14;102707.06;5172758;28;20022;-67
2021/08/24 11:08:41;;;;;;;4.90;3.00;;;;;;;21.89;92.48;102699.44;5173810;28;20110;-69
2021/08/24 11:11:19;;;;;;;;;;;;;;;22.09;92.09;102700.88;5161739;28;20046;-68
2021/08/24 11:14:28;;;;;;;5.03;3.70;;;;;;;21.76;91.88;102696.38;5169546;28;19922;-67
2021/08/24 11:17:15;;;;;;;4.78;2.72;;;;;;;21.60;94.21;102710.47;5170480;28;20030;-70
2021/08/24 11:19:56;;;;;;;5.90;3.33;;;;;;;21.35;93.20;102706.78;5172264;28;20026;-68
2021/08/24 11:22:40;;;;;;;5.13;3.30;;;;;;;21.67;93.08;102706.19;5166613;28;20030;-69
2021/08/24 11:25:20;;;;;;;3.65;2.70;;;;;;;21.79;90.94;102698.75;5167348;28;20034;-67
2021/08/24 11:28:02;;;;;;;4.90;2.80;;;;;;;21.84;90.03;102694.59;5170715;28;20031;-67
2021/08/24 11:30:41;;;;;;;4.95;2.97;;;;;;;21.95;90.78;102696.13;5170529;28;20493;-68
2021/08/24 11:33:32;;;;;;;6.40;3.20;;;;;;;22.25;91.24;102694.78;5171309;28;20129;-67
2021/08/24 11:36:14;;;;;;;4.32;3.00;;;;;;;22.23;90.53;102679.91;5165644;28;20038;-67
2021/08/24 11:39:00;;;;;;;4.63;3.40;;;;;;;22.37;88.31;102681.97;5171135;28;20019;-68
2021/08/24 11:41:32;;;;;;;4.25;2.90;;;;;;;22.42;89.12;102681.47;5170092;28;20031;-68
2021/08/24 11:44:20;;;;;;;6.55;3.20;;;;;;;22.66;90.06;102680.69;5170927;28;20034;-69
2021/08/24 11:47:01;;;;;;;4.50;2.90;;;;;;;22.69;90.22;102675.00;5170740;28;20041;-69
2021/08/24 11:49:47;;;;;;;5.60;3.53;;;;;;;22.71;91.03;102670.34;5170940;28;20022;-68
2021/08/24 11:52:38;;;;;;;3.95;2.40;;;;;;;22.85;90.56;102672.34;5167282;28;20033;-68
2021/08/24 11:55:23;;;;;;;5.55;2.83;;;;;;;22.82;89.05;102673.50;5165539;28;20169;-68
2021/08/24 11:58:07;;;;;;;6.28;2.75;;;;;;;22.62;88.30;102679.34;5171148;28;20062;-68
2021/08/24 12:00:39;;;;;;;4.97;2.63;;;;;;;22.68;84.84;102674.16;5166625;28;20432;-68